sensor_id;sensor_type;location;lat;lon;timestamp;P1;durP1;ratioP1;P2;durP2;ratioP2
5869;SDS011;2961;47.702;9.410;2023-08-20T00:00:12;6.00;;;5.40;;
5869;SDS011;2961;47.702;9.410;2023-08-20T00:02:41;9.43;;;5.90;;
5869;SDS011;2961;47.702;9.410;2023-08-20T00:05:09;10.30;;;5.57;;
5869;SDS011;2961;47.702;9.410;2023-08-20T00:07:37;8.30;;;6.30;;
5869;SDS011;2961;47.702;9.410;2023-08-20T00:10:04;9.77;;;6.03;;
5869;SDS011;2961;47.702;9.410;2023-08-20T00:12:32;12.33;;;5.73;;
5869;SDS011;2961;47.702;9.410;2023-08-20T00:15:00;6.67;;;5.50;;
5869;SDS011;2961;47.702;9.410;2023-08-20T00:17:31;7.10;;;5.20;;
5869;SDS011;2961;47.702;9.410;2023-08-20T00:20:00;6.60;;;5.97;;
5869;SDS011;2961;47.702;9.410;2023-08-20T00:22:29;9.20;;;6.57;;
5869;SDS011;2961;47.702;9.410;2023-08-20T00:24:57;6.50;;;5.90;;
5869;SDS011;2961;47.702;9.410;2023-08-20T00:27:24;8.67;;;6.07;;
5869;SDS011;2961;47.702;9.410;2023-08-20T00:29:51;8.73;;;6.03;;
5869;SDS011;2961;47.702;9.410;2023-08-20T00:32:17;6.70;;;5.70;;
5869;SDS011;2961;47.702;9.410;2023-08-20T00:34:44;6.30;;;5.70;;
5869;SDS011;2961;47.702;9.410;2023-08-20T00:37:12;7.33;;;6.30;;
5869;SDS011;2961;47.702;9.410;2023-08-20T00:39:39;7.57;;;6.63;;
5869;SDS011;2961;47.702;9.410;2023-08-20T00:42:06;6.53;;;5.90;;
5869;SDS011;2961;47.702;9.410;2023-08-20T00:44:33;8.83;;;6.43;;
5869;SDS011;2961;47.702;9.410;2023-08-20T00:47:01;6.47;;;5.87;;
5869;SDS011;2961;47.702;9.410;2023-08-20T00:49:28;7.40;;;6.20;;
5869;SDS011;2961;47.702;9.410;2023-08-20T00:51:55;11.80;;;6.17;;
5869;SDS011;2961;47.702;9.410;2023-08-20T00:54:24;6.20;;;5.60;;
5869;SDS011;2961;47.702;9.410;2023-08-20T00:56:52;8.40;;;7.50;;
5869;SDS011;2961;47.702;9.410;2023-08-20T00:59:19;9.73;;;6.37;;
5869;SDS011;2961;47.702;9.410;2023-08-20T01:01:46;10.23;;;6.33;;
5869;SDS011;2961;47.702;9.410;2023-08-20T01:04:13;7.40;;;5.77;;
5869;SDS011;2961;47.702;9.410;2023-08-20T01:06:44;8.43;;;5.80;;
5869;SDS011;2961;47.702;9.410;2023-08-20T01:09:19;6.17;;;5.63;;
5869;SDS011;2961;47.702;9.410;2023-08-20T01:11:57;7.13;;;6.43;;
5869;SDS011;2961;47.702;9.410;2023-08-20T01:14:26;7.90;;;6.50;;
5869;SDS011;2961;47.702;9.410;2023-08-20T01:16:53;6.77;;;6.00;;
5869;SDS011;2961;47.702;9.410;2023-08-20T01:19:20;7.17;;;6.53;;
5869;SDS011;2961;47.702;9.410;2023-08-20T01:21:52;8.80;;;6.17;;
5869;SDS011;2961;47.702;9.410;2023-08-20T01:24:38;6.47;;;5.80;;
5869;SDS011;2961;47.702;9.410;2023-08-20T01:27:19;7.10;;;6.50;;
5869;SDS011;2961;47.702;9.410;2023-08-20T01:29:55;6.43;;;5.83;;
5869;SDS011;2961;47.702;9.410;2023-08-20T01:32:22;8.63;;;6.30;;
5869;SDS011;2961;47.702;9.410;2023-08-20T01:34:51;6.87;;;6.03;;
5869;SDS011;2961;47.702;9.410;2023-08-20T01:37:19;7.87;;;7.10;;
5869;SDS011;2961;47.702;9.410;2023-08-20T01:39:46;8.80;;;6.10;;
5869;SDS011;2961;47.702;9.410;2023-08-20T01:42:12;7.63;;;6.50;;
5869;SDS011;2961;47.702;9.410;2023-08-20T01:44:39;6.33;;;5.63;;
5869;SDS011;2961;47.702;9.410;2023-08-20T01:47:07;7.03;;;6.27;;
5869;SDS011;2961;47.702;9.410;2023-08-20T01:49:34;12.23;;;7.30;;
5869;SDS011;2961;47.702;9.410;2023-08-20T01:52:01;9.43;;;7.57;;
5869;SDS011;2961;47.702;9.410;2023-08-20T01:54:28;7.03;;;6.40;;
5869;SDS011;2961;47.702;9.410;2023-08-20T01:56:55;8.60;;;7.40;;
5869;SDS011;2961;47.702;9.410;2023-08-20T01:59:22;9.53;;;6.70;;
5869;SDS011;2961;47.702;9.410;2023-08-20T02:01:49;6.73;;;5.97;;
5869;SDS011;2961;47.702;9.410;2023-08-20T02:04:17;7.30;;;6.60;;
5869;SDS011;2961;47.702;9.410;2023-08-20T02:06:44;6.63;;;6.03;;
5869;SDS011;2961;47.702;9.410;2023-08-20T02:09:11;7.43;;;5.80;;
5869;SDS011;2961;47.702;9.410;2023-08-20T02:11:38;7.90;;;5.80;;
5869;SDS011;2961;47.702;9.410;2023-08-20T02:14:04;7.00;;;6.00;;
5869;SDS011;2961;47.702;9.410;2023-08-20T02:16:31;6.93;;;6.20;;
5869;SDS011;2961;47.702;9.410;2023-08-20T02:18:58;8.33;;;6.67;;
5869;SDS011;2961;47.702;9.410;2023-08-20T02:21:27;10.17;;;8.20;;
5869;SDS011;2961;47.702;9.410;2023-08-20T02:23:53;13.30;;;8.07;;
5869;SDS011;2961;47.702;9.410;2023-08-20T02:26:20;9.03;;;8.07;;
5869;SDS011;2961;47.702;9.410;2023-08-20T02:28:47;9.73;;;8.77;;
5869;SDS011;2961;47.702;9.410;2023-08-20T02:31:14;12.70;;;8.70;;
5869;SDS011;2961;47.702;9.410;2023-08-20T02:33:41;10.10;;;6.93;;
5869;SDS011;2961;47.702;9.410;2023-08-20T02:36:07;7.33;;;6.63;;
5869;SDS011;2961;47.702;9.410;2023-08-20T02:38:35;14.77;;;7.50;;
5869;SDS011;2961;47.702;9.410;2023-08-20T02:41:02;11.87;;;8.00;;
5869;SDS011;2961;47.702;9.410;2023-08-20T02:43:29;8.70;;;7.60;;
5869;SDS011;2961;47.702;9.410;2023-08-20T02:45:56;11.37;;;8.17;;
5869;SDS011;2961;47.702;9.410;2023-08-20T02:48:23;10.00;;;7.20;;
5869;SDS011;2961;47.702;9.410;2023-08-20T02:50:52;12.00;;;7.80;;
5869;SDS011;2961;47.702;9.410;2023-08-20T02:53:19;7.87;;;7.17;;
5869;SDS011;2961;47.702;9.410;2023-08-20T02:55:47;9.23;;;7.23;;
5869;SDS011;2961;47.702;9.410;2023-08-20T02:58:14;8.20;;;7.37;;
5869;SDS011;2961;47.702;9.410;2023-08-20T03:00:41;10.30;;;7.97;;
5869;SDS011;2961;47.702;9.410;2023-08-20T03:03:10;13.33;;;8.37;;
5869;SDS011;2961;47.702;9.410;2023-08-20T03:05:37;10.07;;;9.07;;
5869;SDS011;2961;47.702;9.410;2023-08-20T03:08:04;7.10;;;6.50;;
5869;SDS011;2961;47.702;9.410;2023-08-20T03:10:31;9.60;;;7.00;;
5869;SDS011;2961;47.702;9.410;2023-08-20T03:13:00;8.50;;;7.10;;
5869;SDS011;2961;47.702;9.410;2023-08-20T03:15:27;9.10;;;7.67;;
5869;SDS011;2961;47.702;9.410;2023-08-20T03:17:54;9.10;;;8.20;;
5869;SDS011;2961;47.702;9.410;2023-08-20T03:20:21;10.23;;;8.13;;
5869;SDS011;2961;47.702;9.410;2023-08-20T03:22:48;10.57;;;7.70;;
5869;SDS011;2961;47.702;9.410;2023-08-20T03:25:15;11.00;;;9.30;;
5869;SDS011;2961;47.702;9.410;2023-08-20T03:27:42;8.97;;;8.17;;
5869;SDS011;2961;47.702;9.410;2023-08-20T03:30:11;10.03;;;9.10;;
5869;SDS011;2961;47.702;9.410;2023-08-20T03:32:38;9.10;;;8.27;;
5869;SDS011;2961;47.702;9.410;2023-08-20T03:35:05;8.50;;;7.63;;
5869;SDS011;2961;47.702;9.410;2023-08-20T03:37:32;8.83;;;7.97;;
5869;SDS011;2961;47.702;9.410;2023-08-20T03:39:59;13.33;;;7.87;;
5869;SDS011;2961;47.702;9.410;2023-08-20T03:42:26;8.47;;;7.67;;
5869;SDS011;2961;47.702;9.410;2023-08-20T03:44:52;9.20;;;8.27;;
5869;SDS011;2961;47.702;9.410;2023-08-20T03:47:20;8.33;;;7.27;;
5869;SDS011;2961;47.702;9.410;2023-08-20T03:49:47;7.50;;;6.70;;
5869;SDS011;2961;47.702;9.410;2023-08-20T03:52:14;8.77;;;8.00;;
5869;SDS011;2961;47.702;9.410;2023-08-20T03:54:41;10.67;;;8.63;;
5869;SDS011;2961;47.702;9.410;2023-08-20T03:57:08;9.93;;;7.27;;
5869;SDS011;2961;47.702;9.410;2023-08-20T03:59:34;9.90;;;7.10;;
5869;SDS011;2961;47.702;9.410;2023-08-20T04:02:01;9.27;;;7.17;;
5869;SDS011;2961;47.702;9.410;2023-08-20T04:04:30;8.67;;;7.63;;
5869;SDS011;2961;47.702;9.410;2023-08-20T04:06:56;7.77;;;7.00;;
5869;SDS011;2961;47.702;9.410;2023-08-20T04:09:23;9.83;;;6.40;;
5869;SDS011;2961;47.702;9.410;2023-08-20T04:11:50;9.00;;;6.50;;
5869;SDS011;2961;47.702;9.410;2023-08-20T04:14:17;9.97;;;8.03;;
5869;SDS011;2961;47.702;9.410;2023-08-20T04:16:44;8.97;;;8.17;;
5869;SDS011;2961;47.702;9.410;2023-08-20T04:19:10;8.63;;;7.73;;
5869;SDS011;2961;47.702;9.410;2023-08-20T04:21:39;13.53;;;8.10;;
5869;SDS011;2961;47.702;9.410;2023-08-20T04:24:05;9.13;;;8.37;;
5869;SDS011;2961;47.702;9.410;2023-08-20T04:26:32;13.50;;;8.90;;
5869;SDS011;2961;47.702;9.410;2023-08-20T04:28:59;9.23;;;8.00;;
5869;SDS011;2961;47.702;9.410;2023-08-20T04:31:26;9.20;;;6.80;;
5869;SDS011;2961;47.702;9.410;2023-08-20T04:33:53;18.50;;;7.90;;
5869;SDS011;2961;47.702;9.410;2023-08-20T04:36:20;10.63;;;8.10;;
5869;SDS011;2961;47.702;9.410;2023-08-20T04:38:48;10.13;;;7.53;;
5869;SDS011;2961;47.702;9.410;2023-08-20T04:41:14;10.50;;;8.27;;
5869;SDS011;2961;47.702;9.410;2023-08-20T04:43:42;8.13;;;7.43;;
5869;SDS011;2961;47.702;9.410;2023-08-20T04:46:09;9.30;;;8.40;;
5869;SDS011;2961;47.702;9.410;2023-08-20T04:48:36;9.20;;;7.27;;
5869;SDS011;2961;47.702;9.410;2023-08-20T04:51:03;9.63;;;6.70;;
5869;SDS011;2961;47.702;9.410;2023-08-20T04:53:31;7.53;;;6.83;;
5869;SDS011;2961;47.702;9.410;2023-08-20T04:55:59;10.80;;;8.97;;
5869;SDS011;2961;47.702;9.410;2023-08-20T04:58:26;11.30;;;8.23;;
5869;SDS011;2961;47.702;9.410;2023-08-20T05:00:53;14.60;;;8.30;;
5869;SDS011;2961;47.702;9.410;2023-08-20T05:03:20;9.27;;;7.87;;
5869;SDS011;2961;47.702;9.410;2023-08-20T05:05:50;8.20;;;7.50;;
5869;SDS011;2961;47.702;9.410;2023-08-20T05:08:16;12.03;;;7.80;;
5869;SDS011;2961;47.702;9.410;2023-08-20T05:10:43;9.30;;;7.43;;
5869;SDS011;2961;47.702;9.410;2023-08-20T05:13:11;8.27;;;7.43;;
5869;SDS011;2961;47.702;9.410;2023-08-20T05:15:38;8.57;;;7.80;;
5869;SDS011;2961;47.702;9.410;2023-08-20T05:18:05;8.63;;;7.83;;
5869;SDS011;2961;47.702;9.410;2023-08-20T05:20:32;8.80;;;7.07;;
5869;SDS011;2961;47.702;9.410;2023-08-20T05:22:58;8.53;;;7.63;;
5869;SDS011;2961;47.702;9.410;2023-08-20T05:25:25;9.40;;;8.40;;
5869;SDS011;2961;47.702;9.410;2023-08-20T05:27:52;8.80;;;7.80;;
5869;SDS011;2961;47.702;9.410;2023-08-20T05:30:20;8.83;;;7.93;;
5869;SDS011;2961;47.702;9.410;2023-08-20T05:32:47;10.53;;;8.43;;
5869;SDS011;2961;47.702;9.410;2023-08-20T05:35:14;10.63;;;8.83;;
5869;SDS011;2961;47.702;9.410;2023-08-20T05:37:40;10.97;;;8.60;;
5869;SDS011;2961;47.702;9.410;2023-08-20T05:40:08;8.67;;;7.87;;
5869;SDS011;2961;47.702;9.410;2023-08-20T05:42:35;8.83;;;7.80;;
5869;SDS011;2961;47.702;9.410;2023-08-20T05:45:02;8.13;;;7.30;;
5869;SDS011;2961;47.702;9.410;2023-08-20T05:47:31;10.60;;;7.37;;
5869;SDS011;2961;47.702;9.410;2023-08-20T05:49:58;7.37;;;6.70;;
5869;SDS011;2961;47.702;9.410;2023-08-20T05:52:24;8.90;;;7.17;;
5869;SDS011;2961;47.702;9.410;2023-08-20T05:54:51;14.20;;;7.80;;
5869;SDS011;2961;47.702;9.410;2023-08-20T05:57:18;6.80;;;6.30;;
5869;SDS011;2961;47.702;9.410;2023-08-20T05:59:45;7.50;;;6.80;;
5869;SDS011;2961;47.702;9.410;2023-08-20T06:02:14;7.77;;;7.00;;
5869;SDS011;2961;47.702;9.410;2023-08-20T06:04:43;6.93;;;5.90;;
5869;SDS011;2961;47.702;9.410;2023-08-20T06:07:10;8.23;;;7.00;;
5869;SDS011;2961;47.702;9.410;2023-08-20T06:09:37;14.17;;;6.90;;
5869;SDS011;2961;47.702;9.410;2023-08-20T06:12:04;12.80;;;6.60;;
5869;SDS011;2961;47.702;9.410;2023-08-20T06:14:31;10.50;;;5.73;;
5869;SDS011;2961;47.702;9.410;2023-08-20T06:16:58;7.43;;;6.37;;
5869;SDS011;2961;47.702;9.410;2023-08-20T06:19:25;11.53;;;6.00;;
5869;SDS011;2961;47.702;9.410;2023-08-20T06:21:53;7.73;;;6.80;;
5869;SDS011;2961;47.702;9.410;2023-08-20T06:24:20;10.50;;;6.63;;
5869;SDS011;2961;47.702;9.410;2023-08-20T06:26:47;8.20;;;6.77;;
5869;SDS011;2961;47.702;9.410;2023-08-20T06:29:13;10.50;;;7.00;;
5869;SDS011;2961;47.702;9.410;2023-08-20T06:31:40;8.97;;;6.53;;
5869;SDS011;2961;47.702;9.410;2023-08-20T06:34:07;9.90;;;7.10;;
5869;SDS011;2961;47.702;9.410;2023-08-20T06:36:34;8.30;;;7.53;;
5869;SDS011;2961;47.702;9.410;2023-08-20T06:39:03;7.67;;;6.97;;
5869;SDS011;2961;47.702;9.410;2023-08-20T06:41:30;7.70;;;6.77;;
5869;SDS011;2961;47.702;9.410;2023-08-20T06:43:57;11.90;;;7.63;;
5869;SDS011;2961;47.702;9.410;2023-08-20T06:46:24;9.13;;;6.67;;
5869;SDS011;2961;47.702;9.410;2023-08-20T06:48:50;9.40;;;6.90;;
5869;SDS011;2961;47.702;9.410;2023-08-20T06:51:19;11.90;;;6.87;;
5869;SDS011;2961;47.702;9.410;2023-08-20T06:53:47;9.53;;;7.33;;
5869;SDS011;2961;47.702;9.410;2023-08-20T06:56:15;7.00;;;6.40;;
5869;SDS011;2961;47.702;9.410;2023-08-20T06:58:42;8.50;;;6.63;;
5869;SDS011;2961;47.702;9.410;2023-08-20T07:01:09;7.10;;;6.07;;
5869;SDS011;2961;47.702;9.410;2023-08-20T07:03:38;6.47;;;5.90;;
5869;SDS011;2961;47.702;9.410;2023-08-20T07:06:19;9.23;;;5.87;;
5869;SDS011;2961;47.702;9.410;2023-08-20T07:08:46;8.17;;;6.53;;
5869;SDS011;2961;47.702;9.410;2023-08-20T07:11:14;10.93;;;6.07;;
5869;SDS011;2961;47.702;9.410;2023-08-20T07:13:41;8.13;;;6.30;;
5869;SDS011;2961;47.702;9.410;2023-08-20T07:16:08;7.45;;;6.55;;
5869;SDS011;2961;47.702;9.410;2023-08-20T07:18:35;7.60;;;6.00;;
5869;SDS011;2961;47.702;9.410;2023-08-20T07:21:02;5.85;;;5.35;;
5869;SDS011;2961;47.702;9.410;2023-08-20T07:23:29;5.85;;;5.35;;
5869;SDS011;2961;47.702;9.410;2023-08-20T07:26:03;6.80;;;6.03;;
5869;SDS011;2961;47.702;9.410;2023-08-20T07:28:32;6.75;;;6.15;;
5869;SDS011;2961;47.702;9.410;2023-08-20T07:31:17;7.18;;;5.95;;
5869;SDS011;2961;47.702;9.410;2023-08-20T07:33:45;11.18;;;6.00;;
5869;SDS011;2961;47.702;9.410;2023-08-20T07:36:12;6.95;;;6.35;;
5869;SDS011;2961;47.702;9.410;2023-08-20T07:38:39;7.53;;;6.55;;
5869;SDS011;2961;47.702;9.410;2023-08-20T07:41:07;6.30;;;5.72;;
5869;SDS011;2961;47.702;9.410;2023-08-20T07:43:37;13.85;;;6.38;;
5869;SDS011;2961;47.702;9.410;2023-08-20T07:46:05;6.28;;;5.78;;
5869;SDS011;2961;47.702;9.410;2023-08-20T07:48:32;9.52;;;5.88;;
5869;SDS011;2961;47.702;9.410;2023-08-20T07:50:59;7.60;;;5.45;;
5869;SDS011;2961;47.702;9.410;2023-08-20T07:53:26;6.90;;;5.93;;
5869;SDS011;2961;47.702;9.410;2023-08-20T07:55:53;8.57;;;5.90;;
5869;SDS011;2961;47.702;9.410;2023-08-20T07:58:20;12.27;;;5.90;;
5869;SDS011;2961;47.702;9.410;2023-08-20T08:00:48;7.53;;;5.75;;
5869;SDS011;2961;47.702;9.410;2023-08-20T08:03:14;7.05;;;6.45;;
5869;SDS011;2961;47.702;9.410;2023-08-20T08:05:45;10.50;;;5.57;;
5869;SDS011;2961;47.702;9.410;2023-08-20T08:08:13;7.50;;;5.68;;
5869;SDS011;2961;47.702;9.410;2023-08-20T08:10:41;7.90;;;5.95;;
5869;SDS011;2961;47.702;9.410;2023-08-20T08:13:09;6.25;;;5.75;;
5869;SDS011;2961;47.702;9.410;2023-08-20T08:15:36;8.23;;;6.05;;
5869;SDS011;2961;47.702;9.410;2023-08-20T08:18:04;7.30;;;6.60;;
5869;SDS011;2961;47.702;9.410;2023-08-20T08:20:31;7.55;;;6.70;;
5869;SDS011;2961;47.702;9.410;2023-08-20T08:22:58;9.13;;;7.65;;
5869;SDS011;2961;47.702;9.410;2023-08-20T08:25:25;7.43;;;6.75;;
5869;SDS011;2961;47.702;9.410;2023-08-20T08:27:52;9.05;;;7.13;;
5869;SDS011;2961;47.702;9.410;2023-08-20T08:30:19;7.70;;;6.90;;
5869;SDS011;2961;47.702;9.410;2023-08-20T08:32:46;8.50;;;7.70;;
5869;SDS011;2961;47.702;9.410;2023-08-20T08:35:14;12.07;;;7.17;;
5869;SDS011;2961;47.702;9.410;2023-08-20T08:37:41;9.67;;;8.80;;
5869;SDS011;2961;47.702;9.410;2023-08-20T08:40:08;11.10;;;7.60;;
5869;SDS011;2961;47.702;9.410;2023-08-20T08:42:35;11.63;;;8.60;;
5869;SDS011;2961;47.702;9.410;2023-08-20T08:45:02;7.57;;;7.00;;
5869;SDS011;2961;47.702;9.410;2023-08-20T08:47:30;13.87;;;7.63;;
5869;SDS011;2961;47.702;9.410;2023-08-20T08:49:57;12.23;;;9.80;;
5869;SDS011;2961;47.702;9.410;2023-08-20T08:52:25;10.23;;;8.07;;
5869;SDS011;2961;47.702;9.410;2023-08-20T08:54:52;8.23;;;7.43;;
5869;SDS011;2961;47.702;9.410;2023-08-20T08:57:19;8.13;;;7.30;;
5869;SDS011;2961;47.702;9.410;2023-08-20T08:59:46;14.07;;;8.57;;
5869;SDS011;2961;47.702;9.410;2023-08-20T09:02:13;8.47;;;7.67;;
5869;SDS011;2961;47.702;9.410;2023-08-20T09:04:44;13.17;;;9.70;;
5869;SDS011;2961;47.702;9.410;2023-08-20T09:07:11;10.67;;;8.67;;
5869;SDS011;2961;47.702;9.410;2023-08-20T09:09:42;10.60;;;8.93;;
5869;SDS011;2961;47.702;9.410;2023-08-20T09:12:14;9.03;;;8.13;;
5869;SDS011;2961;47.702;9.410;2023-08-20T09:14:43;10.70;;;8.63;;
5869;SDS011;2961;47.702;9.410;2023-08-20T09:17:12;8.83;;;7.80;;
5869;SDS011;2961;47.702;9.410;2023-08-20T09:19:40;17.00;;;9.40;;
5869;SDS011;2961;47.702;9.410;2023-08-20T09:22:10;12.70;;;8.57;;
5869;SDS011;2961;47.702;9.410;2023-08-20T09:24:44;14.43;;;8.40;;
5869;SDS011;2961;47.702;9.410;2023-08-20T09:27:11;10.70;;;9.47;;
5869;SDS011;2961;47.702;9.410;2023-08-20T09:29:45;17.43;;;10.63;;
5869;SDS011;2961;47.702;9.410;2023-08-20T09:32:16;10.37;;;8.10;;
5869;SDS011;2961;47.702;9.410;2023-08-20T09:34:44;11.63;;;9.00;;
5869;SDS011;2961;47.702;9.410;2023-08-20T09:37:12;16.57;;;9.00;;
5869;SDS011;2961;47.702;9.410;2023-08-20T09:39:40;9.32;;;8.40;;
5869;SDS011;2961;47.702;9.410;2023-08-20T09:42:09;14.47;;;8.87;;
5869;SDS011;2961;47.702;9.410;2023-08-20T09:44:37;9.27;;;8.33;;
5869;SDS011;2961;47.702;9.410;2023-08-20T09:47:06;17.90;;;8.20;;
5869;SDS011;2961;47.702;9.410;2023-08-20T09:49:36;10.53;;;9.30;;
5869;SDS011;2961;47.702;9.410;2023-08-20T09:52:04;12.07;;;9.40;;
5869;SDS011;2961;47.702;9.410;2023-08-20T09:54:49;10.13;;;9.13;;
5869;SDS011;2961;47.702;9.410;2023-08-20T09:57:26;13.00;;;8.40;;
5869;SDS011;2961;47.702;9.410;2023-08-20T09:59:58;10.47;;;9.53;;
5869;SDS011;2961;47.702;9.410;2023-08-20T10:02:25;11.97;;;8.50;;
5869;SDS011;2961;47.702;9.410;2023-08-20T10:04:52;11.20;;;8.77;;
5869;SDS011;2961;47.702;9.410;2023-08-20T10:07:19;15.33;;;8.77;;
5869;SDS011;2961;47.702;9.410;2023-08-20T10:09:49;12.93;;;9.23;;
5869;SDS011;2961;47.702;9.410;2023-08-20T10:12:17;10.63;;;9.63;;
5869;SDS011;2961;47.702;9.410;2023-08-20T10:14:46;10.33;;;8.70;;
5869;SDS011;2961;47.702;9.410;2023-08-20T10:17:13;11.17;;;9.47;;
5869;SDS011;2961;47.702;9.410;2023-08-20T10:19:41;14.10;;;8.43;;
5869;SDS011;2961;47.702;9.410;2023-08-20T10:22:07;13.63;;;9.27;;
5869;SDS011;2961;47.702;9.410;2023-08-20T10:24:41;10.90;;;9.00;;
5869;SDS011;2961;47.702;9.410;2023-08-20T10:27:13;11.13;;;8.57;;
5869;SDS011;2961;47.702;9.410;2023-08-20T10:29:50;11.30;;;8.73;;
5869;SDS011;2961;47.702;9.410;2023-08-20T10:32:19;9.60;;;8.70;;
5869;SDS011;2961;47.702;9.410;2023-08-20T10:34:49;11.03;;;9.07;;
5869;SDS011;2961;47.702;9.410;2023-08-20T10:37:19;14.37;;;10.70;;
5869;SDS011;2961;47.702;9.410;2023-08-20T10:39:53;13.67;;;9.50;;
5869;SDS011;2961;47.702;9.410;2023-08-20T10:42:27;10.47;;;8.63;;
5869;SDS011;2961;47.702;9.410;2023-08-20T10:44:59;13.00;;;9.53;;
5869;SDS011;2961;47.702;9.410;2023-08-20T10:47:35;10.37;;;8.93;;
5869;SDS011;2961;47.702;9.410;2023-08-20T10:50:09;12.30;;;8.50;;
5869;SDS011;2961;47.702;9.410;2023-08-20T10:52:39;10.10;;;8.70;;
5869;SDS011;2961;47.702;9.410;2023-08-20T10:55:07;11.53;;;8.97;;
5869;SDS011;2961;47.702;9.410;2023-08-20T10:57:34;12.20;;;8.70;;
5869;SDS011;2961;47.702;9.410;2023-08-20T11:00:04;14.83;;;9.73;;
5869;SDS011;2961;47.702;9.410;2023-08-20T11:02:36;10.10;;;9.20;;
5869;SDS011;2961;47.702;9.410;2023-08-20T11:05:03;10.10;;;8.93;;
5869;SDS011;2961;47.702;9.410;2023-08-20T11:07:30;11.20;;;9.60;;
5869;SDS011;2961;47.702;9.410;2023-08-20T11:09:59;10.93;;;8.80;;
5869;SDS011;2961;47.702;9.410;2023-08-20T11:12:29;14.00;;;9.70;;
5869;SDS011;2961;47.702;9.410;2023-08-20T11:14:59;10.43;;;9.43;;
5869;SDS011;2961;47.702;9.410;2023-08-20T11:17:28;17.10;;;9.50;;
5869;SDS011;2961;47.702;9.410;2023-08-20T11:19:55;12.37;;;9.00;;
5869;SDS011;2961;47.702;9.410;2023-08-20T11:22:22;10.33;;;9.23;;
5869;SDS011;2961;47.702;9.410;2023-08-20T11:24:48;10.20;;;9.23;;
5869;SDS011;2961;47.702;9.410;2023-08-20T11:27:15;10.10;;;9.17;;
5869;SDS011;2961;47.702;9.410;2023-08-20T11:29:42;13.70;;;9.20;;
5869;SDS011;2961;47.702;9.410;2023-08-20T11:32:09;11.73;;;8.60;;
5869;SDS011;2961;47.702;9.410;2023-08-20T11:34:40;9.37;;;8.47;;
5869;SDS011;2961;47.702;9.410;2023-08-20T11:37:07;9.73;;;8.60;;
5869;SDS011;2961;47.702;9.410;2023-08-20T11:39:36;11.60;;;8.67;;
5869;SDS011;2961;47.702;9.410;2023-08-20T11:42:03;10.60;;;9.20;;
5869;SDS011;2961;47.702;9.410;2023-08-20T11:44:41;14.30;;;9.10;;
5869;SDS011;2961;47.702;9.410;2023-08-20T11:47:13;14.17;;;9.03;;
5869;SDS011;2961;47.702;9.410;2023-08-20T11:49:41;14.93;;;8.70;;
5869;SDS011;2961;47.702;9.410;2023-08-20T11:52:08;10.87;;;8.40;;
5869;SDS011;2961;47.702;9.410;2023-08-20T11:54:35;10.07;;;8.53;;
5869;SDS011;2961;47.702;9.410;2023-08-20T11:57:03;15.20;;;8.73;;
5869;SDS011;2961;47.702;9.410;2023-08-20T11:59:31;11.70;;;8.07;;
5869;SDS011;2961;47.702;9.410;2023-08-20T12:01:59;8.97;;;7.73;;
5869;SDS011;2961;47.702;9.410;2023-08-20T12:04:29;10.07;;;8.70;;
5869;SDS011;2961;47.702;9.410;2023-08-20T12:07:04;14.17;;;9.50;;
5869;SDS011;2961;47.702;9.410;2023-08-20T12:09:32;15.53;;;8.37;;
5869;SDS011;2961;47.702;9.410;2023-08-20T12:11:59;14.73;;;8.90;;
5869;SDS011;2961;47.702;9.410;2023-08-20T12:14:26;22.87;;;9.37;;
5869;SDS011;2961;47.702;9.410;2023-08-20T12:16:53;9.90;;;8.20;;
5869;SDS011;2961;47.702;9.410;2023-08-20T12:19:40;10.23;;;8.33;;
5869;SDS011;2961;47.702;9.410;2023-08-20T12:22:08;11.53;;;8.97;;
5869;SDS011;2961;47.702;9.410;2023-08-20T12:24:35;8.80;;;7.90;;
5869;SDS011;2961;47.702;9.410;2023-08-20T12:27:02;9.60;;;8.00;;
5869;SDS011;2961;47.702;9.410;2023-08-20T12:29:29;10.00;;;8.23;;
5869;SDS011;2961;47.702;9.410;2023-08-20T12:31:56;12.70;;;8.07;;
5869;SDS011;2961;47.702;9.410;2023-08-20T12:34:24;17.60;;;8.80;;
5869;SDS011;2961;47.702;9.410;2023-08-20T12:36:51;16.30;;;8.83;;
5869;SDS011;2961;47.702;9.410;2023-08-20T12:39:19;11.00;;;8.47;;
5869;SDS011;2961;47.702;9.410;2023-08-20T12:41:46;9.50;;;8.43;;
5869;SDS011;2961;47.702;9.410;2023-08-20T12:44:13;9.40;;;8.40;;
5869;SDS011;2961;47.702;9.410;2023-08-20T12:46:39;9.03;;;8.17;;
5869;SDS011;2961;47.702;9.410;2023-08-20T12:49:06;11.47;;;8.03;;
5869;SDS011;2961;47.702;9.410;2023-08-20T12:51:33;10.40;;;8.63;;
5869;SDS011;2961;47.702;9.410;2023-08-20T12:53:59;12.53;;;7.97;;
5869;SDS011;2961;47.702;9.410;2023-08-20T12:56:28;14.40;;;8.20;;
5869;SDS011;2961;47.702;9.410;2023-08-20T12:58:55;12.60;;;8.13;;
5869;SDS011;2961;47.702;9.410;2023-08-20T13:01:21;16.20;;;7.57;;
5869;SDS011;2961;47.702;9.410;2023-08-20T13:03:48;8.63;;;7.73;;
5869;SDS011;2961;47.702;9.410;2023-08-20T13:06:16;10.10;;;7.87;;
5869;SDS011;2961;47.702;9.410;2023-08-20T13:08:43;8.60;;;7.70;;
5869;SDS011;2961;47.702;9.410;2023-08-20T13:11:10;11.07;;;8.07;;
5869;SDS011;2961;47.702;9.410;2023-08-20T13:13:44;11.17;;;8.10;;
5869;SDS011;2961;47.702;9.410;2023-08-20T13:16:11;9.10;;;7.67;;
5869;SDS011;2961;47.702;9.410;2023-08-20T13:18:39;9.57;;;7.40;;
5869;SDS011;2961;47.702;9.410;2023-08-20T13:21:06;10.83;;;7.20;;
5869;SDS011;2961;47.702;9.410;2023-08-20T13:23:33;12.90;;;8.50;;
5869;SDS011;2961;47.702;9.410;2023-08-20T13:26:00;8.13;;;7.33;;
5869;SDS011;2961;47.702;9.410;2023-08-20T13:28:27;11.87;;;7.90;;
5869;SDS011;2961;47.702;9.410;2023-08-20T13:30:55;14.03;;;8.20;;
5869;SDS011;2961;47.702;9.410;2023-08-20T13:33:22;8.83;;;7.03;;
5869;SDS011;2961;47.702;9.410;2023-08-20T13:35:49;11.10;;;8.30;;
5869;SDS011;2961;47.702;9.410;2023-08-20T13:38:17;8.30;;;7.00;;
5869;SDS011;2961;47.702;9.410;2023-08-20T13:40:44;10.73;;;7.20;;
5869;SDS011;2961;47.702;9.410;2023-08-20T13:43:11;8.37;;;6.33;;
5869;SDS011;2961;47.702;9.410;2023-08-20T13:45:37;8.37;;;6.40;;
5869;SDS011;2961;47.702;9.410;2023-08-20T13:48:06;11.67;;;6.60;;
5869;SDS011;2961;47.702;9.410;2023-08-20T13:50:33;7.63;;;6.83;;
5869;SDS011;2961;47.702;9.410;2023-08-20T13:53:00;7.43;;;6.67;;
5869;SDS011;2961;47.702;9.410;2023-08-20T13:55:27;11.83;;;6.70;;
5869;SDS011;2961;47.702;9.410;2023-08-20T13:57:56;7.10;;;5.80;;
5869;SDS011;2961;47.702;9.410;2023-08-20T14:00:23;9.83;;;6.27;;
5869;SDS011;2961;47.702;9.410;2023-08-20T14:02:49;16.00;;;6.67;;
5869;SDS011;2961;47.702;9.410;2023-08-20T14:05:18;9.63;;;6.77;;
5869;SDS011;2961;47.702;9.410;2023-08-20T14:07:45;9.17;;;7.20;;
5869;SDS011;2961;47.702;9.410;2023-08-20T14:10:12;7.20;;;6.00;;
5869;SDS011;2961;47.702;9.410;2023-08-20T14:12:39;8.07;;;6.33;;
5869;SDS011;2961;47.702;9.410;2023-08-20T14:15:06;15.63;;;6.40;;
5869;SDS011;2961;47.702;9.410;2023-08-20T14:17:34;10.73;;;6.47;;
5869;SDS011;2961;47.702;9.410;2023-08-20T14:20:00;10.23;;;6.50;;
5869;SDS011;2961;47.702;9.410;2023-08-20T14:22:29;20.50;;;6.00;;
5869;SDS011;2961;47.702;9.410;2023-08-20T14:24:55;11.03;;;6.60;;
5869;SDS011;2961;47.702;9.410;2023-08-20T14:27:22;14.47;;;6.57;;
5869;SDS011;2961;47.702;9.410;2023-08-20T14:29:49;9.60;;;6.33;;
5869;SDS011;2961;47.702;9.410;2023-08-20T14:32:16;12.63;;;6.83;;
5869;SDS011;2961;47.702;9.410;2023-08-20T14:34:43;7.63;;;6.93;;
5869;SDS011;2961;47.702;9.410;2023-08-20T14:37:10;8.77;;;6.23;;
5869;SDS011;2961;47.702;9.410;2023-08-20T14:39:39;13.13;;;6.87;;
5869;SDS011;2961;47.702;9.410;2023-08-20T14:42:07;8.80;;;7.30;;
5869;SDS011;2961;47.702;9.410;2023-08-20T14:44:34;6.90;;;6.20;;
5869;SDS011;2961;47.702;9.410;2023-08-20T14:47:01;9.43;;;6.37;;
5869;SDS011;2961;47.702;9.410;2023-08-20T14:49:29;10.82;;;5.93;;
5869;SDS011;2961;47.702;9.410;2023-08-20T14:52:10;6.67;;;5.77;;
5869;SDS011;2961;47.702;9.410;2023-08-20T14:54:37;13.32;;;6.18;;
5869;SDS011;2961;47.702;9.410;2023-08-20T14:57:05;6.40;;;5.60;;
5869;SDS011;2961;47.702;9.410;2023-08-20T14:59:31;7.43;;;6.30;;
5869;SDS011;2961;47.702;9.410;2023-08-20T15:01:59;9.25;;;5.80;;
5869;SDS011;2961;47.702;9.410;2023-08-20T15:04:26;7.63;;;4.53;;
5869;SDS011;2961;47.702;9.410;2023-08-20T15:06:52;13.77;;;6.10;;
5869;SDS011;2961;47.702;9.410;2023-08-20T15:09:19;8.33;;;4.83;;
5869;SDS011;2961;47.702;9.410;2023-08-20T15:11:46;9.07;;;5.00;;
5869;SDS011;2961;47.702;9.410;2023-08-20T15:14:14;8.00;;;5.43;;